createdAt,value
2017-12-22T00:00:25.178Z,1044.53
2017-12-22T00:01:25.171Z,1044.54
2017-12-22T00:02:25.158Z,1044.51
2017-12-22T00:03:25.145Z,1044.54
2017-12-22T00:04:25.140Z,1044.47
2017-12-22T00:05:25.123Z,1044.42
2017-12-22T00:06:25.111Z,1044.47
2017-12-22T00:07:25.100Z,1044.43
2017-12-22T00:08:25.094Z,1044.44
2017-12-22T00:09:25.078Z,1044.43
2017-12-22T00:10:25.066Z,1044.4
2017-12-22T00:11:25.061Z,1044.4
2017-12-22T00:12:25.043Z,1044.39
2017-12-22T00:13:25.036Z,1044.42
2017-12-22T00:14:25.025Z,1044.51
2017-12-22T00:15:25.019Z,1044.48
2017-12-22T00:16:25.001Z,1044.44
2017-12-22T00:17:24.989Z,1044.45
2017-12-22T00:18:24.975Z,1044.42
2017-12-22T00:19:24.962Z,1044.43
2017-12-22T00:20:24.952Z,1044.4
2017-12-22T00:21:24.941Z,1044.36
2017-12-22T00:22:24.932Z,1044.42
2017-12-22T00:23:24.921Z,1044.38
2017-12-22T00:24:24.910Z,1044.39
2017-12-22T00:25:24.898Z,1044.37
2017-12-22T00:26:24.884Z,1044.33
2017-12-22T00:27:24.876Z,1044.38
2017-12-22T00:28:24.868Z,1044.28
2017-12-22T00:29:24.905Z,1044.29
2017-12-22T00:30:24.848Z,1044.31
2017-12-22T00:31:24.829Z,1044.32
2017-12-22T00:32:24.819Z,1044.3
2017-12-22T00:33:24.807Z,1044.32
2017-12-22T00:34:24.796Z,1044.25
2017-12-22T00:35:24.787Z,1044.35
2017-12-22T00:36:24.771Z,1044.34
2017-12-22T00:37:24.761Z,1044.36
2017-12-22T00:38:24.748Z,1044.41
2017-12-22T00:39:24.740Z,1044.41
2017-12-22T00:40:24.727Z,1044.42
2017-12-22T00:41:24.716Z,1044.45
2017-12-22T00:42:24.702Z,1044.44
2017-12-22T00:43:24.691Z,1044.42
2017-12-22T00:44:24.681Z,1044.41
2017-12-22T00:45:24.669Z,1044.36
2017-12-22T00:46:24.659Z,1044.33
2017-12-22T00:47:24.646Z,1044.34
2017-12-22T00:48:24.633Z,1044.34
2017-12-22T00:49:24.622Z,1044.38
2017-12-22T00:50:24.610Z,1044.37
2017-12-22T00:51:24.604Z,1044.41
2017-12-22T00:52:24.591Z,1044.44
2017-12-22T00:53:24.595Z,1044.44
2017-12-22T00:54:24.565Z,1044.45
2017-12-22T00:55:24.553Z,1044.43
2017-12-22T00:56:24.542Z,1044.45
2017-12-22T00:57:24.534Z,1044.5
2017-12-22T00:58:24.523Z,1044.42
2017-12-22T00:59:24.509Z,1044.42
2017-12-22T01:00:24.495Z,1044.41
2017-12-22T01:01:24.489Z,1044.41
2017-12-22T01:02:24.474Z,1044.39
2017-12-22T01:03:24.464Z,1044.4
2017-12-22T01:04:24.450Z,1044.41
2017-12-22T01:05:24.440Z,1044.36
2017-12-22T01:06:24.435Z,1044.39
2017-12-22T01:07:24.416Z,1044.35
2017-12-22T01:08:24.409Z,1044.33
2017-12-22T01:09:24.396Z,1044.38
2017-12-22T01:10:24.382Z,1044.35
2017-12-22T01:11:24.373Z,1044.34
2017-12-22T01:12:24.363Z,1044.39
2017-12-22T01:13:24.347Z,1044.38
2017-12-22T01:14:24.339Z,1044.41
2017-12-22T01:15:24.325Z,1044.37
2017-12-22T01:16:24.315Z,1044.34
2017-12-22T01:17:24.301Z,1044.32
2017-12-22T01:18:24.291Z,1044.29
2017-12-22T01:19:24.280Z,1044.28
2017-12-22T01:20:24.268Z,1044.32
2017-12-22T01:21:24.258Z,1044.32
2017-12-22T01:22:24.245Z,1044.36
2017-12-22T01:23:24.236Z,1044.38
2017-12-22T01:24:24.221Z,1044.38
2017-12-22T01:25:24.211Z,1044.36
2017-12-22T01:26:24.199Z,1044.39
2017-12-22T01:27:24.191Z,1044.36
2017-12-22T01:28:24.175Z,1044.37
2017-12-22T01:29:24.165Z,1044.36
2017-12-22T01:30:24.154Z,1044.36
2017-12-22T01:31:24.150Z,1044.32
2017-12-22T01:32:24.133Z,1044.32
2017-12-22T01:33:24.117Z,1044.32
2017-12-22T01:34:24.106Z,1044.36
2017-12-22T01:35:24.098Z,1044.29
2017-12-22T01:36:24.088Z,1044.23
2017-12-22T01:37:24.072Z,1044.25
2017-12-22T01:38:24.061Z,1044.21
2017-12-22T01:39:24.052Z,1044.21
2017-12-22T01:40:24.037Z,1044.21
2017-12-22T01:41:24.028Z,1044.17
2017-12-22T01:42:24.015Z,1044.22
2017-12-22T01:43:24.003Z,1044.18
2017-12-22T01:44:23.995Z,1044.19
2017-12-22T01:45:23.980Z,1044.16
2017-12-22T01:46:23.969Z,1044.18
2017-12-22T01:47:23.957Z,1044.22
2017-12-22T01:48:23.946Z,1044.28
2017-12-22T01:49:23.937Z,1044.21
2017-12-22T01:50:23.925Z,1044.18
2017-12-22T01:51:23.914Z,1044.2
2017-12-22T01:52:23.903Z,1044.21
2017-12-22T01:53:23.889Z,1044.25
2017-12-22T01:54:23.880Z,1044.29
2017-12-22T01:55:23.866Z,1044.21
2017-12-22T01:56:23.854Z,1044.21
2017-12-22T01:57:23.845Z,1044.26
2017-12-22T01:58:23.831Z,1044.33
2017-12-22T01:59:23.820Z,1044.34
2017-12-22T02:00:23.808Z,1044.33
2017-12-22T02:01:23.796Z,1044.2
2017-12-22T02:02:23.785Z,1044.09
2017-12-22T02:03:23.774Z,1044.07
2017-12-22T02:04:23.763Z,1043.98
2017-12-22T02:05:23.751Z,1043.93
2017-12-22T02:06:23.739Z,1043.91
2017-12-22T02:07:23.728Z,1043.89
2017-12-22T02:08:23.716Z,1043.84
2017-12-22T02:09:23.705Z,1043.86
2017-12-22T02:10:23.698Z,1044
2017-12-22T02:11:23.686Z,1044.02
2017-12-22T02:12:23.672Z,1044.08
2017-12-22T02:13:23.659Z,1044.03
2017-12-22T02:14:23.648Z,1044.02
2017-12-22T02:15:23.639Z,1044.06
2017-12-22T02:16:23.628Z,1044.07
2017-12-22T02:17:23.617Z,1044.08
2017-12-22T02:18:23.602Z,1044
2017-12-22T02:19:23.590Z,1044.02
2017-12-22T02:20:23.582Z,1044
2017-12-22T02:21:23.568Z,1043.97
2017-12-22T02:22:23.561Z,1043.99
2017-12-22T02:23:23.544Z,1044.04
2017-12-22T02:24:23.534Z,1043.98
2017-12-22T02:25:23.525Z,1044.03
2017-12-22T02:26:23.510Z,1044.04
2017-12-22T02:27:23.502Z,1044.02
2017-12-22T02:28:23.488Z,1044.08
2017-12-22T02:29:23.477Z,1044.03
2017-12-22T02:30:23.468Z,1043.98
2017-12-22T02:31:23.454Z,1043.92
2017-12-22T02:32:23.447Z,1043.94
2017-12-22T02:33:23.436Z,1043.94
2017-12-22T02:34:23.421Z,1043.94
2017-12-22T02:35:23.408Z,1043.92
2017-12-22T02:36:23.399Z,1043.92
2017-12-22T02:37:23.388Z,1043.97
2017-12-22T02:38:23.378Z,1043.92
2017-12-22T02:39:23.363Z,1043.84
2017-12-22T02:40:23.353Z,1043.83
2017-12-22T02:41:23.343Z,1043.88
2017-12-22T02:42:23.332Z,1043.88
2017-12-22T02:43:23.320Z,1043.9
2017-12-22T02:44:23.306Z,1043.87
2017-12-22T02:45:23.297Z,1043.87
2017-12-22T02:46:23.284Z,1043.83
2017-12-22T02:47:23.276Z,1043.84
2017-12-22T02:48:23.263Z,1043.83
2017-12-22T02:49:23.253Z,1043.81
2017-12-22T02:50:23.239Z,1043.8
2017-12-22T02:51:23.232Z,1043.81
2017-12-22T02:52:23.219Z,1043.79
2017-12-22T02:53:23.207Z,1043.85
2017-12-22T02:54:23.193Z,1043.85
2017-12-22T02:55:23.183Z,1043.96
2017-12-22T02:56:23.170Z,1043.87
2017-12-22T02:57:23.163Z,1043.89
2017-12-22T02:58:23.151Z,1043.9
2017-12-22T02:59:23.137Z,1043.82
2017-12-22T03:00:23.129Z,1043.83
2017-12-22T03:01:23.114Z,1043.78
2017-12-22T03:02:23.103Z,1043.76
2017-12-22T03:03:23.094Z,1043.8
2017-12-22T03:04:23.080Z,1043.86
2017-12-22T03:05:23.070Z,1043.82
2017-12-22T03:06:23.060Z,1043.81
2017-12-22T03:07:23.046Z,1043.88
2017-12-22T03:08:23.038Z,1043.92
2017-12-22T03:09:23.023Z,1043.96
2017-12-22T03:10:23.015Z,1043.92
2017-12-22T03:11:23.005Z,1043.95
2017-12-22T03:12:22.990Z,1043.85
2017-12-22T03:13:22.981Z,1043.86
2017-12-22T03:14:22.969Z,1043.83
2017-12-22T03:15:22.955Z,1043.76
2017-12-22T03:16:22.944Z,1043.69
2017-12-22T03:17:22.933Z,1043.68
2017-12-22T03:18:22.922Z,1043.61
2017-12-22T03:19:22.911Z,1043.62
2017-12-22T03:20:22.903Z,1043.65
2017-12-22T03:21:22.887Z,1043.64
2017-12-22T03:22:22.877Z,1043.69
2017-12-22T03:23:22.870Z,1043.66
2017-12-22T03:24:22.856Z,1043.66
2017-12-22T03:25:22.846Z,1043.64
2017-12-22T03:26:22.832Z,1043.68
2017-12-22T03:27:22.821Z,1043.7
2017-12-22T03:28:22.809Z,1043.7
2017-12-22T03:29:22.797Z,1043.68
2017-12-22T03:30:22.791Z,1043.66
2017-12-22T03:31:22.776Z,1043.66
2017-12-22T03:32:22.763Z,1043.64
2017-12-22T03:33:22.757Z,1043.66
2017-12-22T03:34:22.741Z,1043.62
2017-12-22T03:35:22.730Z,1043.65
2017-12-22T03:36:22.718Z,1043.7
2017-12-22T03:37:22.709Z,1043.68
2017-12-22T03:38:22.699Z,1043.72
2017-12-22T03:39:22.685Z,1043.66
2017-12-22T03:40:22.673Z,1043.69
2017-12-22T03:41:22.662Z,1043.67
2017-12-22T03:42:22.653Z,1043.64
2017-12-22T03:43:22.639Z,1043.67
2017-12-22T03:44:22.628Z,1043.58
2017-12-22T03:45:22.616Z,1043.6
2017-12-22T03:46:22.606Z,1043.57
2017-12-22T03:47:22.600Z,1043.58
2017-12-22T03:48:22.585Z,1043.59
2017-12-22T03:49:22.574Z,1043.55
2017-12-22T03:50:22.563Z,1043.55
2017-12-22T03:51:22.552Z,1043.61
2017-12-22T03:52:22.538Z,1043.57
2017-12-22T03:53:22.529Z,1043.57
2017-12-22T03:54:22.518Z,1043.55
2017-12-22T03:55:22.504Z,1043.56
2017-12-22T03:56:22.495Z,1043.56
2017-12-22T03:57:22.485Z,1043.53
2017-12-22T03:58:22.472Z,1043.51
2017-12-22T03:59:22.461Z,1043.59
2017-12-22T04:00:22.449Z,1043.57
2017-12-22T04:01:22.439Z,1043.57
2017-12-22T04:02:22.430Z,1043.6
2017-12-22T04:03:22.416Z,1043.59
2017-12-22T04:04:22.406Z,1043.58
2017-12-22T04:05:22.393Z,1043.57
2017-12-22T04:06:22.380Z,1043.55
2017-12-22T04:07:22.371Z,1043.5
2017-12-22T04:08:22.370Z,1043.55
2017-12-22T04:09:22.346Z,1043.58
2017-12-22T04:10:22.335Z,1043.59
2017-12-22T04:11:22.324Z,1043.55
2017-12-22T04:12:22.312Z,1043.65
2017-12-22T04:13:22.304Z,1043.64
2017-12-22T04:14:22.290Z,1043.67
2017-12-22T04:15:22.279Z,1043.67
2017-12-22T04:16:22.267Z,1043.67
2017-12-22T04:17:22.256Z,1043.71
2017-12-22T04:18:22.245Z,1043.63
2017-12-22T04:19:22.236Z,1043.66
2017-12-22T04:20:22.222Z,1043.63
2017-12-22T04:21:22.211Z,1043.7
2017-12-22T04:22:22.211Z,1043.73
2017-12-22T04:23:22.190Z,1043.74
2017-12-22T04:24:22.180Z,1043.78
2017-12-22T04:25:22.165Z,1043.79
2017-12-22T04:26:22.158Z,1043.79
2017-12-22T04:27:22.146Z,1043.76
2017-12-22T04:28:22.132Z,1043.74
2017-12-22T04:29:22.121Z,1043.74
2017-12-22T04:30:22.113Z,1043.72
2017-12-22T04:31:22.098Z,1043.72
2017-12-22T04:32:22.089Z,1043.74
2017-12-22T04:33:22.080Z,1043.8
2017-12-22T04:34:22.068Z,1043.89
2017-12-22T04:35:22.054Z,1043.84
2017-12-22T04:36:22.043Z,1043.95
2017-12-22T04:37:22.031Z,1043.95
2017-12-22T04:38:22.020Z,1043.96
2017-12-22T04:39:22.009Z,1043.95
2017-12-22T04:40:22.000Z,1043.89
2017-12-22T04:41:21.987Z,1043.92
2017-12-22T04:42:21.975Z,1043.93
2017-12-22T04:43:21.965Z,1043.91
2017-12-22T04:44:21.953Z,1043.87
2017-12-22T04:45:21.943Z,1043.87
2017-12-22T04:46:21.930Z,1043.88
2017-12-22T04:47:21.921Z,1043.83
2017-12-22T04:48:21.911Z,1043.81
2017-12-22T04:49:21.896Z,1043.83
2017-12-22T04:50:21.887Z,1043.85
2017-12-22T04:51:21.877Z,1043.83
2017-12-22T04:52:21.866Z,1043.86
2017-12-22T04:53:21.852Z,1043.87
2017-12-22T04:54:21.841Z,1043.91
2017-12-22T04:55:21.832Z,1043.78
2017-12-22T04:56:21.817Z,1043.93
2017-12-22T04:57:21.807Z,1043.95
2017-12-22T04:58:21.796Z,1043.95
2017-12-22T04:59:21.785Z,1043.91
2017-12-22T05:00:21.776Z,1043.92
2017-12-22T05:01:21.766Z,1043.9
2017-12-22T05:02:21.752Z,1043.93
2017-12-22T05:03:21.739Z,1044.02
2017-12-22T05:04:21.728Z,1044.05
2017-12-22T05:05:21.720Z,1044.06
2017-12-22T05:06:21.706Z,1044.11
2017-12-22T05:07:21.696Z,1044.11
2017-12-22T05:08:21.683Z,1044.05
2017-12-22T05:09:21.672Z,1044.02
2017-12-22T05:10:21.661Z,1043.9
2017-12-22T05:11:21.649Z,1043.96
2017-12-22T05:12:21.638Z,1043.89
2017-12-22T05:13:21.630Z,1043.9
2017-12-22T05:14:21.634Z,1043.85
2017-12-22T05:15:21.604Z,1043.85
2017-12-22T05:16:21.600Z,1043.86
2017-12-22T05:17:21.587Z,1043.87
2017-12-22T05:18:21.572Z,1043.81
2017-12-22T05:19:21.563Z,1043.82
2017-12-22T05:20:21.551Z,1043.85
2017-12-22T05:21:21.538Z,1043.86
2017-12-22T05:22:21.526Z,1043.79
2017-12-22T05:23:21.517Z,1043.79
2017-12-22T05:24:21.504Z,1043.86
2017-12-22T05:25:21.491Z,1043.89
2017-12-22T05:26:21.481Z,1043.89
2017-12-22T05:27:21.470Z,1043.92
2017-12-22T05:28:21.462Z,1043.83
2017-12-22T05:29:21.452Z,1043.85
2017-12-22T05:30:21.437Z,1043.85
2017-12-22T05:31:21.442Z,1043.87
2017-12-22T05:32:21.417Z,1043.81
2017-12-22T05:33:21.403Z,1043.85
2017-12-22T05:34:21.393Z,1043.84
2017-12-22T05:35:21.381Z,1043.81
2017-12-22T05:36:21.373Z,1043.75
2017-12-22T05:37:21.359Z,1043.78
2017-12-22T05:38:21.350Z,1043.73
2017-12-22T05:39:21.337Z,1043.78
2017-12-22T05:40:21.326Z,1043.77
2017-12-22T05:41:21.327Z,1043.77
2017-12-22T05:42:21.304Z,1043.8
2017-12-22T05:43:21.293Z,1043.85
2017-12-22T05:44:21.281Z,1043.81
2017-12-22T05:45:21.273Z,1043.84
2017-12-22T05:46:21.262Z,1043.85
2017-12-22T05:47:21.248Z,1043.87
2017-12-22T05:48:21.239Z,1043.81
2017-12-22T05:49:21.226Z,1043.77
2017-12-22T05:50:21.216Z,1043.81
2017-12-22T05:51:21.205Z,1043.81
2017-12-22T05:52:21.194Z,1043.79
2017-12-22T05:53:21.186Z,1043.77
2017-12-22T05:54:21.175Z,1043.79
2017-12-22T05:55:21.160Z,1043.79
2017-12-22T05:56:21.149Z,1043.75
2017-12-22T05:57:21.141Z,1043.75
2017-12-22T05:58:21.130Z,1043.75
2017-12-22T05:59:21.116Z,1043.69
2017-12-22T06:00:21.111Z,1043.72
2017-12-22T06:01:21.094Z,1043.61
2017-12-22T06:02:21.083Z,1043.66
2017-12-22T06:03:21.075Z,1043.7
2017-12-22T06:04:21.061Z,1043.64
2017-12-22T06:05:21.050Z,1043.66
2017-12-22T06:06:21.038Z,1043.69
2017-12-22T06:07:21.032Z,1043.73
2017-12-22T06:08:21.057Z,1043.76
2017-12-22T06:09:21.009Z,1043.72
2017-12-22T06:10:21.003Z,1043.73
2017-12-22T06:11:20.984Z,1043.75
2017-12-22T06:12:20.976Z,1043.76
2017-12-22T06:13:20.965Z,1043.77
2017-12-22T06:14:20.951Z,1043.75
2017-12-22T06:15:20.940Z,1043.76
2017-12-22T06:16:20.930Z,1043.77
2017-12-22T06:17:20.917Z,1043.77
2017-12-22T06:18:20.907Z,1043.79
2017-12-22T06:19:20.899Z,1043.73
2017-12-22T06:20:20.884Z,1043.74
2017-12-22T06:21:20.874Z,1043.73
2017-12-22T06:22:20.866Z,1043.74
2017-12-22T06:23:20.852Z,1043.72
2017-12-22T06:24:20.841Z,1043.75
2017-12-22T06:25:20.830Z,1043.71
2017-12-22T06:26:20.821Z,1043.72
2017-12-22T06:27:20.808Z,1043.71
2017-12-22T06:28:20.798Z,1043.71
2017-12-22T06:29:20.787Z,1043.72
2017-12-22T06:30:20.780Z,1043.72
2017-12-22T06:31:20.765Z,1043.77
2017-12-22T06:32:20.758Z,1043.67
2017-12-22T06:33:20.743Z,1043.73
2017-12-22T06:34:20.736Z,1043.68
2017-12-22T06:35:20.723Z,1043.66
2017-12-22T06:36:20.714Z,1043.69
2017-12-22T06:37:20.703Z,1043.64
2017-12-22T06:38:20.689Z,1043.66
2017-12-22T06:39:20.678Z,1043.64
2017-12-22T06:40:20.669Z,1043.66
2017-12-22T06:41:20.659Z,1043.63
2017-12-22T06:42:20.648Z,1043.55
2017-12-22T06:43:20.634Z,1043.61
2017-12-22T06:44:20.623Z,1043.62
2017-12-22T06:45:20.616Z,1043.65
2017-12-22T06:46:20.601Z,1043.67
2017-12-22T06:47:20.594Z,1043.7
2017-12-22T06:48:20.582Z,1043.66
2017-12-22T06:49:20.570Z,1043.67
2017-12-22T06:50:20.557Z,1043.69
2017-12-22T06:51:20.550Z,1043.72
2017-12-22T06:52:20.539Z,1043.66
2017-12-22T06:53:20.529Z,1043.67
2017-12-22T06:54:20.515Z,1043.65
2017-12-22T06:55:20.503Z,1043.61
2017-12-22T06:56:20.494Z,1043.62
2017-12-22T06:57:20.481Z,1043.63
2017-12-22T06:58:20.473Z,1043.66
2017-12-22T06:59:20.463Z,1043.66
2017-12-22T07:00:20.452Z,1043.67
2017-12-22T07:01:20.438Z,1043.66
2017-12-22T07:02:20.431Z,1043.67
2017-12-22T07:03:20.419Z,1043.69
2017-12-22T07:04:20.408Z,1043.66
2017-12-22T07:05:20.395Z,1043.63
2017-12-22T07:06:20.387Z,1043.6
2017-12-22T07:07:20.374Z,1043.6
2017-12-22T07:08:20.366Z,1043.6
2017-12-22T07:09:20.357Z,1043.61
2017-12-22T07:10:20.344Z,1043.63
2017-12-22T07:11:20.333Z,1043.68
2017-12-22T07:12:20.319Z,1043.62
2017-12-22T07:13:20.309Z,1043.63
2017-12-22T07:14:20.301Z,1043.63
2017-12-22T07:15:20.291Z,1043.67
2017-12-22T07:16:20.276Z,1043.67
2017-12-22T07:17:20.266Z,1043.63
2017-12-22T07:18:20.258Z,1043.66
2017-12-22T07:19:20.244Z,1043.7
2017-12-22T07:20:20.246Z,1043.7
2017-12-22T07:21:20.224Z,1043.73
2017-12-22T07:22:20.212Z,1043.74
2017-12-22T07:23:20.204Z,1043.72
2017-12-22T07:24:20.191Z,1043.77
2017-12-22T07:25:20.181Z,1043.75
2017-12-22T07:26:20.169Z,1043.75
2017-12-22T07:27:20.158Z,1043.77
2017-12-22T07:28:20.148Z,1043.74
2017-12-22T07:29:20.138Z,1043.69
2017-12-22T07:30:20.132Z,1043.71
2017-12-22T07:31:20.117Z,1043.68
2017-12-22T07:32:20.106Z,1043.71
2017-12-22T07:33:20.094Z,1043.7
2017-12-22T07:34:20.087Z,1043.63
2017-12-22T07:35:20.073Z,1043.59
2017-12-22T07:36:20.066Z,1043.58
2017-12-22T07:37:20.052Z,1043.53
2017-12-22T07:38:20.043Z,1043.53
2017-12-22T07:39:20.040Z,1043.49
2017-12-22T07:40:20.025Z,1043.47
2017-12-22T07:41:20.012Z,1043.49
2017-12-22T07:42:20.001Z,1043.46
2017-12-22T07:43:19.995Z,1043.48
2017-12-22T07:44:19.977Z,1043.49
2017-12-22T07:45:19.970Z,1043.45
2017-12-22T07:46:19.956Z,1043.43
2017-12-22T07:47:19.946Z,1043.41
2017-12-22T07:48:19.935Z,1043.41
2017-12-22T07:49:19.924Z,1043.39
2017-12-22T07:50:19.917Z,1043.41
2017-12-22T07:51:19.904Z,1043.39
2017-12-22T07:52:19.895Z,1043.38
2017-12-22T07:53:19.885Z,1043.38
2017-12-22T07:54:19.889Z,1043.33
2017-12-22T07:55:19.861Z,1043.29
2017-12-22T07:56:19.851Z,1043.3
2017-12-22T07:57:19.844Z,1043.31
2017-12-22T07:58:19.834Z,1043.29
2017-12-22T07:59:19.820Z,1043.28
2017-12-22T08:00:19.809Z,1043.29
2017-12-22T08:01:19.799Z,1043.26
2017-12-22T08:02:19.790Z,1043.31
2017-12-22T08:03:19.781Z,1043.34
2017-12-22T08:04:19.772Z,1043.4
2017-12-22T08:05:19.758Z,1043.4
2017-12-22T08:06:19.748Z,1043.44
2017-12-22T08:07:19.736Z,1043.48
2017-12-22T08:08:19.736Z,1043.51
2017-12-22T08:09:19.723Z,1043.46
2017-12-22T08:10:19.708Z,1043.44
2017-12-22T08:11:19.694Z,1043.45
2017-12-22T08:12:19.687Z,1043.49
2017-12-22T08:13:19.682Z,1043.58
2017-12-22T08:14:19.672Z,1043.6
2017-12-22T08:15:19.654Z,1043.62
2017-12-22T08:16:19.646Z,1043.65
2017-12-22T08:17:19.638Z,1043.63
2017-12-22T08:18:19.624Z,1043.58
2017-12-22T08:19:19.611Z,1043.55
2017-12-22T08:20:19.603Z,1043.58
2017-12-22T08:21:19.597Z,1043.52
2017-12-22T08:22:19.582Z,1043.52
2017-12-22T08:23:19.572Z,1043.53
2017-12-22T08:24:19.558Z,1043.54
2017-12-22T08:25:19.558Z,1043.53
2017-12-22T08:26:19.541Z,1043.52
2017-12-22T08:27:19.527Z,1043.52
2017-12-22T08:28:19.520Z,1043.52
2017-12-22T08:29:19.510Z,1043.48
2017-12-22T08:30:19.498Z,1043.47
2017-12-22T08:31:19.485Z,1043.46
2017-12-22T08:32:19.474Z,1043.45
2017-12-22T08:33:19.467Z,1043.47
2017-12-22T08:34:19.453Z,1043.44
2017-12-22T08:35:19.443Z,1043.42
2017-12-22T08:36:19.432Z,1043.43
2017-12-22T08:37:19.422Z,1043.41
2017-12-22T08:38:19.415Z,1043.44
2017-12-22T08:39:19.401Z,1043.4
2017-12-22T08:40:19.390Z,1043.4
2017-12-22T08:41:19.388Z,1043.39
2017-12-22T08:42:19.373Z,1043.32
2017-12-22T08:43:19.362Z,1043.32
2017-12-22T08:44:19.355Z,1043.29
2017-12-22T08:45:19.339Z,1043.29
2017-12-22T08:46:19.330Z,1043.27
2017-12-22T08:47:19.317Z,1043.22
2017-12-22T08:48:19.307Z,1043.2
2017-12-22T08:49:19.305Z,1043.23
2017-12-22T08:50:19.289Z,1043.17
2017-12-22T08:51:19.276Z,1043.14
2017-12-22T08:52:19.267Z,1043.02
2017-12-22T08:53:19.259Z,1043.03
2017-12-22T08:54:19.248Z,1042.99
2017-12-22T08:55:19.235Z,1042.88
2017-12-22T08:56:19.227Z,1042.86
2017-12-22T08:57:19.217Z,1042.81
2017-12-22T08:58:19.205Z,1042.78
2017-12-22T08:59:19.195Z,1042.76
2017-12-22T09:00:19.188Z,1042.8
2017-12-22T09:01:19.174Z,1042.86
2017-12-22T09:02:19.174Z,1042.9
2017-12-22T09:03:19.156Z,1042.86
2017-12-22T09:04:19.148Z,1042.92
2017-12-22T09:05:19.135Z,1042.97
2017-12-22T09:06:19.130Z,1043.01
2017-12-22T09:07:19.118Z,1043.01
2017-12-22T09:08:19.104Z,1042.98
2017-12-22T09:09:19.098Z,1042.96
2017-12-22T09:10:19.089Z,1043.05
2017-12-22T09:11:19.082Z,1043.08
2017-12-22T09:12:19.069Z,1043.1
2017-12-22T09:13:19.063Z,1043.22
2017-12-22T09:14:19.055Z,1043.26
2017-12-22T09:15:19.038Z,1043.29
2017-12-22T09:16:19.029Z,1043.31
2017-12-22T09:17:19.020Z,1043.31
2017-12-22T09:18:19.021Z,1043.35
2017-12-22T09:19:19.000Z,1043.33
2017-12-22T09:20:18.986Z,1043.35
2017-12-22T09:21:18.980Z,1043.37
2017-12-22T09:22:18.967Z,1043.34
2017-12-22T09:23:19.011Z,1043.37
2017-12-22T09:24:18.953Z,1043.33
2017-12-22T09:25:18.954Z,1043.27
2017-12-22T09:26:18.933Z,1043.29
2017-12-22T09:27:18.947Z,1043.29
2017-12-22T09:28:18.912Z,1043.3
2017-12-22T09:29:18.904Z,1043.24
2017-12-22T09:30:18.890Z,1043.25
2017-12-22T09:31:18.878Z,1043.25
2017-12-22T09:32:18.868Z,1043.26
2017-12-22T09:33:18.858Z,1043.27
2017-12-22T09:34:18.850Z,1043.26
2017-12-22T09:35:18.838Z,1043.22
2017-12-22T09:36:18.828Z,1043.2
2017-12-22T09:37:18.851Z,1043.18
2017-12-22T09:38:18.809Z,1043.12
2017-12-22T09:39:18.812Z,1043.04
2017-12-22T09:40:18.793Z,1042.98
2017-12-22T09:41:18.780Z,1042.91
2017-12-22T09:42:18.771Z,1042.9
2017-12-22T09:43:18.759Z,1042.89
2017-12-22T09:44:18.753Z,1042.84
2017-12-22T09:45:18.743Z,1042.86
2017-12-22T09:46:18.761Z,1042.92
2017-12-22T09:47:18.721Z,1042.89
2017-12-22T09:48:18.710Z,1042.9
2017-12-22T09:49:18.701Z,1042.83
2017-12-22T09:50:18.692Z,1042.8
2017-12-22T09:51:18.685Z,1042.81
2017-12-22T09:52:18.675Z,1042.8
2017-12-22T09:53:18.662Z,1042.77
2017-12-22T09:54:18.670Z,1042.79
2017-12-22T09:55:18.648Z,1042.73
2017-12-22T09:56:18.636Z,1042.73
2017-12-22T09:57:18.626Z,1042.67
2017-12-22T09:58:18.616Z,1042.61
2017-12-22T09:59:18.605Z,1042.59
2017-12-22T10:00:18.598Z,1042.6
2017-12-22T10:01:18.588Z,1042.59
2017-12-22T10:02:18.580Z,1042.61
2017-12-22T10:03:18.566Z,1042.62
2017-12-22T10:04:18.581Z,1042.6
2017-12-22T10:05:18.548Z,1042.59
2017-12-22T10:06:18.572Z,1042.56
2017-12-22T10:07:18.552Z,1042.54
2017-12-22T10:08:18.520Z,1042.51
2017-12-22T10:09:18.511Z,1042.53
2017-12-22T10:10:18.510Z,1042.52
2017-12-22T10:11:18.495Z,1042.49
2017-12-22T10:12:18.500Z,1042.55
2017-12-22T10:13:18.475Z,1042.54
2017-12-22T10:14:18.463Z,1042.6
2017-12-22T10:15:18.454Z,1042.65
2017-12-22T10:16:18.444Z,1042.64
2017-12-22T10:17:18.436Z,1042.64
2017-12-22T10:18:18.439Z,1042.59
2017-12-22T10:19:18.425Z,1042.6
2017-12-22T10:20:18.418Z,1042.58
2017-12-22T10:21:18.412Z,1042.6
2017-12-22T10:22:18.399Z,1042.62
2017-12-22T10:23:18.394Z,1042.62
2017-12-22T10:24:18.374Z,1042.65
2017-12-22T10:25:18.377Z,1042.57
2017-12-22T10:26:18.373Z,1042.55
2017-12-22T10:27:18.355Z,1042.51
2017-12-22T10:28:18.338Z,1042.44
2017-12-22T10:29:18.327Z,1042.35
2017-12-22T10:30:18.317Z,1042.35
2017-12-22T10:31:18.306Z,1042.32
2017-12-22T10:32:18.300Z,1042.2
2017-12-22T10:33:18.292Z,1042.17
2017-12-22T10:34:18.281Z,1042
2017-12-22T10:35:18.270Z,1041.92
2017-12-22T10:36:18.261Z,1041.87
2017-12-22T10:37:18.253Z,1041.82
2017-12-22T10:38:18.260Z,1041.85
2017-12-22T10:39:18.244Z,1041.84
2017-12-22T10:40:18.253Z,1041.8
2017-12-22T10:41:18.219Z,1041.84
2017-12-22T10:42:18.208Z,1041.89
2017-12-22T10:43:18.202Z,1041.88
2017-12-22T10:44:18.195Z,1041.92
2017-12-22T10:45:18.188Z,1041.91
2017-12-22T10:46:18.174Z,1042.01
2017-12-22T10:47:18.178Z,1042.08
2017-12-22T10:48:18.156Z,1042.15
2017-12-22T10:49:18.145Z,1042.18
2017-12-22T10:50:18.144Z,1042.25
2017-12-22T10:51:18.127Z,1042.35
2017-12-22T10:52:18.119Z,1042.41
2017-12-22T10:53:18.112Z,1042.54
2017-12-22T10:54:18.104Z,1042.5
2017-12-22T10:55:18.091Z,1042.49
2017-12-22T10:56:18.081Z,1042.44
2017-12-22T10:57:18.076Z,1042.36
2017-12-22T10:58:18.066Z,1042.45
2017-12-22T10:59:18.056Z,1042.41
2017-12-22T11:00:18.051Z,1042.44
2017-12-22T11:01:18.037Z,1042.42
2017-12-22T11:02:18.031Z,1042.5
2017-12-22T11:03:18.017Z,1042.54
2017-12-22T11:04:18.028Z,1042.55
2017-12-22T11:05:18.002Z,1042.63
2017-12-22T11:06:17.994Z,1042.68
2017-12-22T11:07:17.980Z,1042.79
2017-12-22T11:08:17.973Z,1042.89
2017-12-22T11:09:17.961Z,1042.96
2017-12-22T11:10:17.955Z,1043.03
2017-12-22T11:11:17.943Z,1043.13
2017-12-22T11:12:17.933Z,1043.18
2017-12-22T11:13:17.924Z,1043.14
2017-12-22T11:14:17.917Z,1043.11
2017-12-22T11:15:17.905Z,1043.15
2017-12-22T11:16:17.895Z,1043.11
2017-12-22T11:17:17.892Z,1043.18
2017-12-22T11:18:17.876Z,1043.24
2017-12-22T11:19:17.868Z,1043.26
2017-12-22T11:20:17.858Z,1043.17
2017-12-22T11:21:17.846Z,1043
2017-12-22T11:22:17.850Z,1042.99
2017-12-22T11:23:17.831Z,1043.05
2017-12-22T11:24:17.817Z,1043.04
2017-12-22T11:25:17.810Z,1043.02
2017-12-22T11:26:17.800Z,1042.95
2017-12-22T11:27:17.800Z,1042.8
2017-12-22T11:28:17.792Z,1042.88
2017-12-22T11:29:17.770Z,1042.82
2017-12-22T11:30:17.758Z,1042.81
2017-12-22T11:31:17.758Z,1042.83
2017-12-22T11:32:17.739Z,1042.88
2017-12-22T11:33:17.936Z,1042.84
2017-12-22T11:34:17.719Z,1042.8
2017-12-22T11:35:17.709Z,1042.77
2017-12-22T11:36:17.702Z,1042.78
2017-12-22T11:37:17.700Z,1042.77
2017-12-22T11:38:17.680Z,1042.8
2017-12-22T11:39:17.675Z,1042.82
2017-12-22T11:40:17.662Z,1042.73
2017-12-22T11:41:17.655Z,1042.72
2017-12-22T11:42:17.647Z,1042.71
2017-12-22T11:43:17.632Z,1042.72
2017-12-22T11:44:17.623Z,1042.7
2017-12-22T11:45:17.613Z,1042.71
2017-12-22T11:46:17.613Z,1042.59
2017-12-22T11:47:17.598Z,1042.57
2017-12-22T11:48:17.590Z,1042.58
2017-12-22T11:49:17.574Z,1042.64
2017-12-22T11:50:17.566Z,1042.61
2017-12-22T11:51:17.558Z,1042.64
2017-12-22T11:52:17.549Z,1042.62
2017-12-22T11:53:17.539Z,1042.58
2017-12-22T11:54:17.529Z,1042.61
2017-12-22T11:55:17.523Z,1042.65
2017-12-22T11:56:17.508Z,1042.61
2017-12-22T11:57:17.497Z,1042.61
2017-12-22T11:58:17.487Z,1042.62
2017-12-22T11:59:17.479Z,1042.58
2017-12-22T12:00:17.497Z,1042.68
2017-12-22T12:01:17.459Z,1042.64
2017-12-22T12:02:17.459Z,1042.7
2017-12-22T12:03:17.439Z,1042.67
2017-12-22T12:04:17.433Z,1042.65
2017-12-22T12:05:17.419Z,1042.61
2017-12-22T12:06:17.414Z,1042.64
2017-12-22T12:07:17.403Z,1042.55
2017-12-22T12:08:17.390Z,1042.6